createdAt,value
2023-02-28T00:02:08.952Z,55.67
2023-02-28T00:05:02.203Z,55.52
2023-02-28T00:07:53.311Z,55.48
2023-02-28T00:10:39.529Z,55.65
2023-02-28T00:13:26.730Z,55.76
2023-02-28T00:16:16.050Z,55.74
2023-02-28T00:19:02.373Z,55.86
2023-02-28T00:21:48.206Z,55.72
2023-02-28T00:24:34.087Z,55.89
2023-02-28T00:27:19.867Z,55.78
2023-02-28T00:30:07.993Z,56.14
2023-02-28T00:32:53.997Z,56.05
2023-02-28T00:35:40.468Z,56.06
2023-02-28T00:38:28.658Z,56.13
2023-02-28T00:41:14.365Z,56.29
2023-02-28T00:44:00.125Z,55.71
2023-02-28T00:46:45.835Z,56.07
2023-02-28T00:49:33.622Z,55.83
2023-02-28T00:52:19.194Z,56.01
2023-02-28T00:55:05.707Z,55.86
2023-02-28T00:57:52.044Z,55.92
2023-02-28T01:00:37.943Z,55.67
2023-02-28T01:03:24.249Z,56.07
2023-02-28T01:06:13.381Z,55.86
2023-02-28T01:09:00.238Z,55.97
2023-02-28T01:11:46.343Z,56.24
2023-02-28T01:14:32.385Z,56.20
2023-02-28T01:17:18.178Z,56.11
2023-02-28T01:20:05.038Z,56.31
2023-02-28T01:22:50.899Z,56.09
2023-02-28T01:25:37.273Z,56.21
2023-02-28T01:28:24.182Z,56.17
2023-02-28T01:31:11.731Z,56.57
2023-02-28T01:33:57.477Z,56.36
2023-02-28T01:36:47.244Z,56.54
2023-02-28T01:39:33.084Z,56.65
2023-02-28T01:42:19.207Z,56.51
2023-02-28T01:45:28.127Z,56.76
2023-02-28T01:48:13.960Z,56.46
2023-02-28T01:51:06.268Z,56.54
2023-02-28T01:54:03.947Z,56.80
2023-02-28T01:56:55.211Z,56.86
2023-02-28T01:59:56.110Z,56.64
2023-02-28T02:02:50.879Z,56.64
2023-02-28T02:05:39.379Z,56.92
2023-02-28T02:08:29.240Z,56.82
2023-02-28T02:11:22.457Z,56.65
2023-02-28T02:14:11.498Z,56.72
2023-02-28T02:17:19.131Z,56.95
2023-02-28T02:20:48.211Z,57.21
2023-02-28T02:24:00.722Z,56.80
2023-02-28T02:27:03.961Z,56.62
2023-02-28T02:30:03.659Z,56.67
2023-02-28T02:33:10.388Z,56.67
2023-02-28T02:36:01.926Z,56.46
2023-02-28T02:39:15.581Z,56.63
2023-02-28T02:42:04.059Z,56.67
2023-02-28T02:45:04.527Z,56.99
2023-02-28T02:47:51.677Z,56.82
2023-02-28T02:50:59.828Z,56.83
2023-02-28T02:54:02.887Z,57.16
2023-02-28T02:56:49.765Z,57.07
2023-02-28T02:59:36.802Z,56.92
2023-02-28T03:02:23.515Z,56.80
2023-02-28T03:05:43.298Z,57.54
2023-02-28T03:08:30.678Z,56.98
2023-02-28T03:11:17.921Z,56.90
2023-02-28T03:14:07.559Z,56.81
2023-02-28T03:16:59.617Z,56.91
2023-02-28T03:20:08.367Z,56.68
2023-02-28T03:23:18.733Z,57.04
2023-02-28T03:26:16.051Z,57.16
2023-02-28T03:29:18.402Z,57.14
2023-02-28T03:32:15.647Z,57.08
2023-02-28T03:35:07.513Z,57.08
2023-02-28T03:37:59.922Z,56.98
2023-02-28T03:40:51.484Z,57.29
2023-02-28T03:43:39.556Z,56.74
2023-02-28T03:46:28.378Z,56.88
2023-02-28T03:49:22.993Z,57.11
2023-02-28T03:52:09.718Z,57.09
2023-02-28T03:55:01.837Z,57.14
2023-02-28T03:58:28.034Z,57.33
2023-02-28T04:01:32.375Z,57.38
2023-02-28T04:04:19.444Z,56.95
2023-02-28T04:07:09.607Z,56.98
2023-02-28T04:09:55.403Z,57.13
2023-02-28T04:12:41.076Z,57.16
2023-02-28T04:15:28.350Z,57.09
2023-02-28T04:18:14.354Z,57.48
2023-02-28T04:21:01.552Z,56.93
2023-02-28T04:23:47.660Z,57.02
2023-02-28T04:26:37.302Z,57.24
2023-02-28T04:29:35.706Z,57.38
2023-02-28T04:32:21.700Z,57.21
2023-02-28T04:35:14.149Z,57.28
2023-02-28T04:38:00.094Z,57.34
2023-02-28T04:40:46.693Z,57.17
2023-02-28T04:43:33.180Z,56.84
2023-02-28T04:46:21.050Z,57.10
2023-02-28T04:49:06.788Z,57.24
2023-02-28T04:51:53.960Z,57.16
2023-02-28T04:54:40.217Z,57.28
2023-02-28T04:57:26.910Z,57.18
2023-02-28T05:00:16.282Z,56.96
2023-02-28T05:03:03.313Z,57.32
2023-02-28T05:05:49.220Z,57.38
2023-02-28T05:08:35.129Z,57.12
2023-02-28T05:11:40.504Z,57.08
2023-02-28T05:14:26.637Z,57.09
2023-02-28T05:17:13.729Z,57.10
2023-02-28T05:20:13.444Z,57.58
2023-02-28T05:23:03.015Z,57.22
2023-02-28T05:25:49.003Z,57.71
2023-02-28T05:28:34.955Z,57.55
2023-02-28T05:31:20.838Z,57.03
2023-02-28T05:34:07.018Z,57.13
2023-02-28T05:36:53.169Z,57.66
2023-02-28T05:39:39.644Z,57.25
2023-02-28T05:42:25.530Z,57.23
2023-02-28T05:45:13.187Z,57.58
2023-02-28T05:48:00.444Z,57.56
2023-02-28T05:50:47.202Z,57.33
2023-02-28T05:53:33.584Z,57.54
2023-02-28T05:56:19.519Z,57.36
2023-02-28T05:59:05.582Z,57.01
2023-02-28T06:01:54.202Z,57.52
2023-02-28T06:04:41.952Z,57.44
2023-02-28T06:07:28.042Z,57.11
2023-02-28T06:10:16.894Z,57.32
2023-02-28T06:13:06.615Z,57.17
2023-02-28T06:16:02.170Z,57.39
2023-02-28T06:18:47.940Z,57.11
2023-02-28T06:21:33.996Z,57.33
2023-02-28T06:24:21.096Z,57.19
2023-02-28T06:27:07.010Z,57.59
2023-02-28T06:29:56.745Z,57.51
2023-02-28T06:32:42.815Z,57.40
2023-02-28T06:35:28.728Z,57.32
2023-02-28T06:38:23.994Z,57.58
2023-02-28T06:41:11.110Z,57.42
2023-02-28T06:43:57.091Z,57.50
2023-02-28T06:46:44.114Z,57.71
2023-02-28T06:49:30.808Z,57.51
2023-02-28T06:52:17.940Z,57.63
2023-02-28T06:55:06.148Z,57.70
2023-02-28T06:57:53.148Z,57.37
2023-02-28T07:00:38.840Z,57.99
2023-02-28T07:03:26.760Z,57.53
2023-02-28T07:06:12.440Z,57.69
2023-02-28T07:08:59.698Z,57.10
2023-02-28T07:11:45.438Z,57.07
2023-02-28T07:14:31.336Z,57.09
2023-02-28T07:17:17.136Z,57.13
2023-02-28T07:20:05.628Z,57.10
2023-02-28T07:22:57.249Z,57.31
2023-02-28T07:25:43.184Z,57.58
2023-02-28T07:28:30.089Z,57.05
2023-02-28T07:31:16.580Z,57.11
2023-02-28T07:34:06.465Z,57.45
2023-02-28T07:36:54.629Z,57.06
2023-02-28T07:39:43.309Z,57.61
2023-02-28T07:42:29.442Z,57.26
2023-02-28T07:45:15.519Z,57.53
2023-02-28T07:48:01.987Z,57.14
2023-02-28T07:50:56.563Z,57.31
2023-02-28T07:53:42.151Z,57.38
2023-02-28T07:56:28.453Z,57.49
2023-02-28T07:59:14.716Z,57.38
2023-02-28T08:02:00.722Z,57.48
2023-02-28T08:04:46.794Z,57.22
2023-02-28T08:07:33.570Z,57.35
2023-02-28T08:10:19.406Z,57.66
2023-02-28T08:13:05.262Z,57.19
2023-02-28T08:15:51.179Z,57.48
2023-02-28T08:18:37.035Z,57.01
2023-02-28T08:21:23.022Z,57.06
2023-02-28T08:24:09.213Z,57.60
2023-02-28T08:26:55.802Z,56.94
2023-02-28T08:29:41.820Z,57.33
2023-02-28T08:32:30.167Z,57.37
2023-02-28T08:35:16.229Z,57.06
2023-02-28T08:38:01.985Z,57.12
2023-02-28T08:40:47.900Z,56.83
2023-02-28T08:43:37.448Z,56.79
2023-02-28T08:46:25.834Z,56.71
2023-02-28T08:49:13.370Z,56.65
2023-02-28T08:51:59.172Z,56.73
2023-02-28T08:54:46.049Z,56.60
2023-02-28T08:57:31.982Z,56.63
2023-02-28T09:00:18.169Z,56.79
2023-02-28T09:03:04.214Z,56.64
2023-02-28T09:06:01.898Z,56.73
2023-02-28T09:08:47.575Z,56.79
2023-02-28T09:11:36.196Z,56.67
2023-02-28T09:14:21.872Z,56.79
2023-02-28T09:17:07.536Z,57.02
2023-02-28T09:19:53.203Z,56.86
2023-02-28T09:22:39.202Z,57.16
2023-02-28T09:25:24.989Z,56.63
2023-02-28T09:28:10.799Z,56.69
2023-02-28T09:30:58.423Z,56.38
2023-02-28T09:33:45.459Z,56.67
2023-02-28T09:36:43.563Z,57.04
2023-02-28T09:39:30.198Z,56.65
2023-02-28T09:42:27.547Z,56.62
2023-02-28T09:45:38.239Z,57.18
2023-02-28T09:48:29.392Z,56.85
2023-02-28T09:51:27.726Z,56.93
2023-02-28T09:54:25.404Z,56.46
2023-02-28T09:57:33.875Z,56.62
2023-02-28T10:00:26.252Z,56.77
2023-02-28T10:03:30.195Z,56.86
2023-02-28T10:06:19.472Z,56.64
2023-02-28T10:09:26.162Z,56.52
2023-02-28T10:12:12.659Z,55.71
2023-02-28T10:15:00.241Z,56.18
2023-02-28T10:17:55.441Z,55.74
2023-02-28T10:20:48.834Z,55.94
2023-02-28T10:23:37.073Z,55.91
2023-02-28T10:26:22.768Z,55.43
2023-02-28T10:29:09.877Z,55.99
2023-02-28T10:31:56.112Z,56.33
2023-02-28T10:34:41.690Z,55.74
2023-02-28T10:37:28.912Z,55.90
2023-02-28T10:40:23.598Z,56.04
2023-02-28T10:43:15.747Z,55.59
2023-02-28T10:46:10.939Z,55.98
2023-02-28T10:49:15.176Z,55.24
2023-02-28T10:52:01.930Z,55.82
2023-02-28T10:54:47.869Z,55.40
2023-02-28T10:57:39.526Z,55.83
2023-02-28T11:00:26.967Z,55.44
2023-02-28T11:03:45.159Z,55.09
2023-02-28T11:06:33.619Z,55.49
2023-02-28T11:09:26.576Z,54.75
2023-02-28T11:12:46.956Z,55.18
2023-02-28T11:15:36.721Z,54.94
2023-02-28T11:18:27.716Z,54.91
2023-02-28T11:21:20.772Z,54.72
2023-02-28T11:24:26.872Z,55.19
2023-02-28T11:27:48.029Z,54.19
2023-02-28T11:30:44.539Z,54.05
2023-02-28T11:33:33.873Z,54.47
2023-02-28T11:36:28.861Z,54.58
2023-02-28T11:39:15.538Z,54.72
2023-02-28T11:42:13.858Z,54.82
2023-02-28T11:45:25.327Z,54.87
2023-02-28T11:48:32.602Z,54.93
2023-02-28T11:51:25.512Z,55.28
2023-02-28T11:54:17.561Z,54.81
2023-02-28T11:57:27.496Z,54.63
2023-02-28T12:00:47.346Z,54.93
2023-02-28T12:03:58.156Z,54.90
2023-02-28T12:07:10.409Z,54.62
2023-02-28T12:10:06.405Z,55.00
2023-02-28T12:13:22.395Z,54.48
2023-02-28T12:16:31.021Z,54.93
2023-02-28T12:19:24.007Z,54.72
2023-02-28T12:22:12.682Z,54.67
2023-02-28T12:25:07.488Z,54.81
2023-02-28T12:27:56.005Z,57.68
2023-02-28T12:30:52.289Z,60.31
2023-02-28T12:33:43.952Z,60.64
2023-02-28T12:36:30.237Z,59.38
2023-02-28T12:39:28.675Z,59.59
2023-02-28T12:42:30.769Z,59.49
2023-02-28T12:45:28.933Z,60.56
2023-02-28T12:48:23.415Z,59.87
2023-02-28T12:51:09.686Z,59.89
2023-02-28T12:54:23.774Z,61.27
2023-02-28T12:57:35.191Z,61.44
2023-02-28T13:00:24.436Z,59.79
2023-02-28T13:03:33.769Z,61.20
2023-02-28T13:06:25.223Z,59.89
2023-02-28T13:09:16.675Z,60.08
2023-02-28T13:12:03.023Z,59.32
2023-02-28T13:14:49.719Z,59.19
2023-02-28T13:17:35.687Z,59.84
2023-02-28T13:20:36.995Z,60.06
2023-02-28T13:23:48.051Z,61.29
2023-02-28T13:26:36.698Z,60.32
2023-02-28T13:29:31.638Z,59.81
2023-02-28T13:32:27.465Z,60.05
2023-02-28T13:35:15.342Z,59.47
2023-02-28T13:38:13.984Z,59.37
2023-02-28T13:41:34.812Z,60.52
2023-02-28T13:44:27.764Z,59.78
2023-02-28T13:47:13.820Z,59.50
2023-02-28T13:50:27.334Z,60.21
2023-02-28T13:53:17.378Z,59.18
2023-02-28T13:56:28.088Z,59.89
2023-02-28T13:59:26.130Z,58.90
2023-02-28T14:02:41.995Z,60.52
2023-02-28T14:05:30.836Z,59.69
2023-02-28T14:08:22.022Z,59.22
2023-02-28T14:11:17.951Z,58.75
2023-02-28T14:14:05.429Z,59.72
2023-02-28T14:16:53.358Z,59.82
2023-02-28T14:19:40.115Z,59.72
2023-02-28T14:22:54.655Z,60.54
2023-02-28T14:25:41.604Z,62.55
2023-02-28T14:28:38.606Z,60.03
2023-02-28T14:31:29.740Z,58.55
2023-02-28T14:34:25.388Z,58.77
2023-02-28T14:37:16.270Z,57.82
2023-02-28T14:40:05.856Z,57.68
2023-02-28T14:43:03.083Z,57.83
2023-02-28T14:45:55.607Z,57.36
2023-02-28T14:48:42.210Z,57.14
2023-02-28T14:51:32.353Z,56.91
2023-02-28T14:54:25.042Z,56.77
2023-02-28T14:57:28.713Z,56.81
2023-02-28T15:00:22.237Z,56.98
2023-02-28T15:03:39.917Z,57.15
2023-02-28T15:06:26.806Z,56.79
2023-02-28T15:09:19.670Z,56.97
2023-02-28T15:12:05.934Z,56.87
2023-02-28T15:14:52.338Z,56.38
2023-02-28T15:17:46.880Z,56.56
2023-02-28T15:20:33.563Z,56.94
2023-02-28T15:23:21.043Z,56.41
2023-02-28T15:26:08.674Z,56.87
2023-02-28T15:29:00.570Z,56.84
2023-02-28T15:31:57.266Z,57.02
2023-02-28T15:34:45.250Z,56.75
2023-02-28T15:37:40.759Z,57.13
2023-02-28T15:40:54.866Z,56.88
2023-02-28T15:43:41.652Z,57.87
2023-02-28T15:46:27.387Z,57.04
2023-02-28T15:49:20.861Z,57.60
2023-02-28T15:52:07.589Z,57.50
2023-02-28T15:54:55.208Z,57.48
2023-02-28T15:57:42.160Z,57.58
2023-02-28T16:00:30.623Z,57.14
2023-02-28T16:03:38.786Z,57.42
2023-02-28T16:06:45.468Z,57.16
2023-02-28T16:09:34.283Z,57.48
2023-02-28T16:12:22.365Z,57.59
2023-02-28T16:15:27.180Z,57.55
2023-02-28T16:18:13.729Z,58.00
2023-02-28T16:21:32.185Z,58.02
2023-02-28T16:24:18.257Z,57.47
2023-02-28T16:27:06.240Z,57.80
2023-02-28T16:29:51.975Z,57.76
2023-02-28T16:32:37.907Z,57.16
2023-02-28T16:35:24.462Z,57.40
2023-02-28T16:38:11.690Z,57.47
2023-02-28T16:41:00.280Z,57.36
2023-02-28T16:43:53.229Z,57.79
2023-02-28T16:46:39.173Z,57.42
2023-02-28T16:49:24.957Z,57.63
2023-02-28T16:52:12.823Z,57.86
2023-02-28T16:54:58.770Z,57.76
2023-02-28T16:57:45.976Z,57.62
2023-02-28T17:00:33.029Z,57.34
2023-02-28T17:12:32.260Z,57.50
2023-02-28T17:15:19.977Z,57.02
2023-02-28T17:18:06.911Z,57.29
2023-02-28T17:20:52.595Z,57.41
2023-02-28T17:23:39.458Z,57.94
2023-02-28T17:26:33.747Z,57.53
2023-02-28T17:29:22.124Z,57.89
2023-02-28T17:32:17.160Z,57.55
2023-02-28T17:35:04.022Z,57.30
2023-02-28T17:37:50.086Z,57.50
2023-02-28T17:40:37.640Z,57.74
2023-02-28T17:43:24.617Z,57.54
2023-02-28T17:46:17.470Z,58.00
2023-02-28T17:49:05.287Z,58.00
2023-02-28T17:51:51.780Z,57.85
2023-02-28T17:54:37.870Z,57.76
2023-02-28T17:57:23.813Z,57.71
2023-02-28T18:00:14.581Z,57.76
2023-02-28T18:03:01.543Z,57.73
2023-02-28T18:05:48.026Z,58.04
2023-02-28T18:08:36.325Z,58.26
2023-02-28T18:11:23.186Z,57.93
2023-02-28T18:14:14.933Z,57.76
2023-02-28T18:17:00.597Z,57.97
2023-02-28T18:19:46.367Z,58.22
2023-02-28T18:22:37.033Z,57.42
2023-02-28T18:25:26.083Z,57.73
2023-02-28T18:28:15.039Z,57.91
2023-02-28T18:31:08.405Z,58.19
2023-02-28T18:33:57.406Z,57.74
2023-02-28T18:36:47.235Z,58.07
2023-02-28T18:39:33.064Z,58.01
2023-02-28T18:42:21.306Z,58.07
2023-02-28T18:45:08.002Z,57.46
2023-02-28T18:47:55.027Z,58.38
2023-02-28T18:50:42.113Z,58.09
2023-02-28T18:53:28.344Z,58.05
2023-02-28T18:56:17.224Z,58.08
2023-02-28T18:59:05.544Z,58.23
2023-02-28T19:01:51.395Z,58.38
2023-02-28T19:04:41.746Z,58.57
2023-02-28T19:07:27.529Z,58.14
2023-02-28T19:10:14.030Z,57.87
2023-02-28T19:13:00.474Z,58.27
2023-02-28T19:15:47.047Z,58.04
2023-02-28T19:18:34.502Z,57.93
2023-02-28T19:21:22.963Z,58.13
2023-02-28T19:24:10.241Z,57.79
2023-02-28T19:26:56.617Z,57.94
2023-02-28T19:29:42.416Z,57.98
2023-02-28T19:32:28.237Z,57.78
2023-02-28T19:35:15.119Z,57.86
2023-02-28T19:38:01.056Z,57.62
2023-02-28T19:40:47.937Z,58.06
2023-02-28T19:43:39.844Z,57.66
2023-02-28T19:46:26.346Z,57.70
2023-02-28T19:49:13.253Z,57.94
2023-02-28T19:51:59.052Z,57.88
2023-02-28T19:54:45.248Z,57.88
2023-02-28T19:57:30.870Z,57.92
2023-02-28T20:00:17.139Z,58.09
2023-02-28T20:03:02.853Z,57.63
2023-02-28T20:05:49.216Z,57.64
2023-02-28T20:08:35.552Z,58.02
2023-02-28T20:11:21.699Z,58.39
2023-02-28T20:14:07.680Z,58.08
2023-02-28T20:16:57.919Z,57.74
2023-02-28T20:19:44.054Z,58.04
2023-02-28T20:22:29.916Z,58.13
2023-02-28T20:25:21.075Z,58.01
2023-02-28T20:28:11.605Z,58.26
2023-02-28T20:30:57.344Z,58.12
2023-02-28T20:33:46.706Z,58.27
2023-02-28T20:36:33.037Z,58.07
2023-02-28T20:39:19.335Z,58.01
2023-02-28T20:42:06.053Z,58.03
2023-02-28T20:45:35.927Z,58.48
2023-02-28T20:48:22.380Z,57.74
2023-02-28T20:51:08.702Z,58.27
2023-02-28T20:53:54.303Z,58.06
2023-02-28T20:56:40.444Z,58.20
2023-02-28T20:59:26.373Z,57.88
2023-02-28T21:02:15.971Z,57.96
2023-02-28T21:05:01.930Z,57.91
2023-02-28T21:07:48.015Z,58.46
2023-02-28T21:10:33.695Z,57.92
2023-02-28T21:13:19.520Z,57.74
2023-02-28T21:16:17.551Z,57.74
2023-02-28T21:19:06.370Z,58.07
2023-02-28T21:21:54.913Z,58.11
2023-02-28T21:24:40.850Z,57.65
2023-02-28T21:27:27.011Z,57.31
2023-02-28T21:30:13.284Z,57.28
2023-02-28T21:32:59.377Z,57.69
2023-02-28T21:35:45.033Z,57.39
2023-02-28T21:38:32.101Z,57.34
2023-02-28T21:41:20.216Z,57.31
2023-02-28T21:44:06.273Z,57.39
2023-02-28T21:46:55.232Z,57.34
2023-02-28T21:49:41.336Z,57.19
2023-02-28T21:52:27.373Z,57.48
2023-02-28T21:55:13.685Z,57.57
2023-02-28T21:57:59.551Z,57.46
2023-02-28T22:00:46.987Z,57.45
2023-02-28T22:03:34.193Z,57.58
2023-02-28T22:06:22.043Z,57.45
2023-02-28T22:09:12.608Z,57.84
2023-02-28T22:11:58.890Z,58.06
2023-02-28T22:14:46.238Z,57.46
2023-02-28T22:17:31.876Z,57.76
2023-02-28T22:20:17.560Z,57.59
2023-02-28T22:23:03.253Z,57.54
2023-02-28T22:25:49.412Z,57.57
2023-02-28T22:28:36.520Z,57.71
2023-02-28T22:31:26.236Z,57.71
2023-02-28T22:34:13.016Z,57.27
2023-02-28T22:36:58.974Z,56.88
2023-02-28T22:39:45.773Z,57.17
2023-02-28T22:42:34.653Z,57.23
2023-02-28T22:45:20.498Z,57.17
2023-02-28T22:48:07.941Z,57.30
2023-02-28T22:51:02.188Z,57.36
2023-02-28T22:53:49.434Z,57.09
2023-02-28T22:56:35.794Z,57.40
2023-02-28T22:59:21.760Z,57.18
2023-02-28T23:02:08.014Z,57.81
2023-02-28T23:04:55.269Z,57.51
2023-02-28T23:07:42.645Z,57.34
2023-02-28T23:10:28.466Z,56.90
2023-02-28T23:13:14.582Z,56.87
2023-02-28T23:16:00.513Z,56.98
2023-02-28T23:18:46.698Z,57.37
2023-02-28T23:21:33.071Z,57.36
2023-02-28T23:24:22.213Z,57.37
2023-02-28T23:27:08.287Z,57.14
2023-02-28T23:29:53.998Z,56.96
2023-02-28T23:32:40.392Z,56.95
2023-02-28T23:35:26.127Z,56.97
2023-02-28T23:38:11.821Z,56.89
2023-02-28T23:40:57.478Z,56.91
2023-02-28T23:43:44.940Z,56.93
2023-02-28T23:46:31.354Z,57.21
2023-02-28T23:49:21.545Z,57.07
2023-02-28T23:52:07.533Z,57.11
2023-02-28T23:54:53.427Z,57.15
2023-02-28T23:57:39.406Z,57.31
